sensor_id;sensor_type;location;lat;lon;timestamp;temperature;humidity
13093;DHT22;6612;49.568;11.000;2024-03-08T00:01:25;5.00;48.80
13093;DHT22;6612;49.568;11.000;2024-03-08T00:03:52;5.00;49.20
13093;DHT22;6612;49.568;11.000;2024-03-08T00:06:19;5.00;49.10
13093;DHT22;6612;49.568;11.000;2024-03-08T00:08:47;5.00;49.00
13093;DHT22;6612;49.568;11.000;2024-03-08T00:11:14;5.00;49.40
13093;DHT22;6612;49.568;11.000;2024-03-08T00:13:42;5.00;49.20
13093;DHT22;6612;49.568;11.000;2024-03-08T00:16:10;5.00;49.00
13093;DHT22;6612;49.568;11.000;2024-03-08T00:18:38;4.90;49.20
13093;DHT22;6612;49.568;11.000;2024-03-08T00:21:05;4.90;49.20
13093;DHT22;6612;49.568;11.000;2024-03-08T00:23:34;4.90;49.10
13093;DHT22;6612;49.568;11.000;2024-03-08T00:26:04;4.90;49.20
13093;DHT22;6612;49.568;11.000;2024-03-08T00:28:32;5.00;49.40
13093;DHT22;6612;49.568;11.000;2024-03-08T00:31:00;4.90;49.30
13093;DHT22;6612;49.568;11.000;2024-03-08T00:33:27;4.90;49.30
13093;DHT22;6612;49.568;11.000;2024-03-08T00:35:53;4.90;49.20
13093;DHT22;6612;49.568;11.000;2024-03-08T00:38:20;4.90;49.30
13093;DHT22;6612;49.568;11.000;2024-03-08T00:40:46;4.90;49.70
13093;DHT22;6612;49.568;11.000;2024-03-08T00:43:15;4.90;49.70
13093;DHT22;6612;49.568;11.000;2024-03-08T00:45:42;4.90;49.70
13093;DHT22;6612;49.568;11.000;2024-03-08T00:48:09;4.90;49.60
13093;DHT22;6612;49.568;11.000;2024-03-08T00:50:37;4.80;49.70
13093;DHT22;6612;49.568;11.000;2024-03-08T00:53:04;4.80;49.80
13093;DHT22;6612;49.568;11.000;2024-03-08T00:55:31;4.80;50.00
13093;DHT22;6612;49.568;11.000;2024-03-08T00:57:59;4.80;50.00
13093;DHT22;6612;49.568;11.000;2024-03-08T01:00:27;4.80;50.30
13093;DHT22;6612;49.568;11.000;2024-03-08T01:02:54;4.80;50.30
13093;DHT22;6612;49.568;11.000;2024-03-08T01:05:21;4.80;50.10
13093;DHT22;6612;49.568;11.000;2024-03-08T01:07:50;4.80;50.10
13093;DHT22;6612;49.568;11.000;2024-03-08T01:10:17;4.80;50.30
13093;DHT22;6612;49.568;11.000;2024-03-08T01:12:44;4.80;50.30
13093;DHT22;6612;49.568;11.000;2024-03-08T01:15:11;4.80;50.40
13093;DHT22;6612;49.568;11.000;2024-03-08T01:17:40;4.70;50.40
13093;DHT22;6612;49.568;11.000;2024-03-08T01:20:09;4.70;50.30
13093;DHT22;6612;49.568;11.000;2024-03-08T01:22:38;4.70;50.70
13093;DHT22;6612;49.568;11.000;2024-03-08T01:25:06;4.70;50.90
13093;DHT22;6612;49.568;11.000;2024-03-08T01:27:34;4.70;50.40
13093;DHT22;6612;49.568;11.000;2024-03-08T01:30:03;4.70;50.50
13093;DHT22;6612;49.568;11.000;2024-03-08T01:32:30;4.70;50.60
13093;DHT22;6612;49.568;11.000;2024-03-08T01:34:58;4.70;50.70
13093;DHT22;6612;49.568;11.000;2024-03-08T01:37:25;4.70;50.90
13093;DHT22;6612;49.568;11.000;2024-03-08T01:39:53;4.70;50.70
13093;DHT22;6612;49.568;11.000;2024-03-08T01:42:20;4.70;50.70
13093;DHT22;6612;49.568;11.000;2024-03-08T01:44:47;4.70;50.90
13093;DHT22;6612;49.568;11.000;2024-03-08T01:47:15;4.70;51.00
13093;DHT22;6612;49.568;11.000;2024-03-08T01:49:42;4.70;51.50
13093;DHT22;6612;49.568;11.000;2024-03-08T01:52:11;4.70;51.30
13093;DHT22;6612;49.568;11.000;2024-03-08T01:54:39;4.70;51.50
13093;DHT22;6612;49.568;11.000;2024-03-08T01:57:06;4.70;51.60
13093;DHT22;6612;49.568;11.000;2024-03-08T01:59:34;4.70;51.20
13093;DHT22;6612;49.568;11.000;2024-03-08T02:02:02;4.70;51.80
13093;DHT22;6612;49.568;11.000;2024-03-08T02:04:30;4.70;51.40
13093;DHT22;6612;49.568;11.000;2024-03-08T02:06:57;4.70;52.30
13093;DHT22;6612;49.568;11.000;2024-03-08T02:09:26;4.70;51.40
13093;DHT22;6612;49.568;11.000;2024-03-08T02:11:53;4.70;51.50
13093;DHT22;6612;49.568;11.000;2024-03-08T02:14:21;4.70;51.20
13093;DHT22;6612;49.568;11.000;2024-03-08T02:16:49;4.70;51.30
13093;DHT22;6612;49.568;11.000;2024-03-08T02:19:17;4.60;51.70
13093;DHT22;6612;49.568;11.000;2024-03-08T02:21:46;4.60;51.60
13093;DHT22;6612;49.568;11.000;2024-03-08T02:24:14;4.60;51.80
13093;DHT22;6612;49.568;11.000;2024-03-08T02:26:41;4.60;51.70
13093;DHT22;6612;49.568;11.000;2024-03-08T02:29:09;4.60;51.50
13093;DHT22;6612;49.568;11.000;2024-03-08T02:31:36;4.60;51.50
13093;DHT22;6612;49.568;11.000;2024-03-08T02:34:05;4.60;51.50
13093;DHT22;6612;49.568;11.000;2024-03-08T02:36:32;4.60;51.30
13093;DHT22;6612;49.568;11.000;2024-03-08T02:39:02;4.60;51.60
13093;DHT22;6612;49.568;11.000;2024-03-08T02:41:30;4.60;51.80
13093;DHT22;6612;49.568;11.000;2024-03-08T02:43:58;4.50;51.50
13093;DHT22;6612;49.568;11.000;2024-03-08T02:46:25;4.50;51.50
13093;DHT22;6612;49.568;11.000;2024-03-08T02:48:52;4.50;51.60
13093;DHT22;6612;49.568;11.000;2024-03-08T02:51:20;4.50;51.80
13093;DHT22;6612;49.568;11.000;2024-03-08T02:53:47;4.50;51.70
13093;DHT22;6612;49.568;11.000;2024-03-08T02:56:18;4.40;51.80
13093;DHT22;6612;49.568;11.000;2024-03-08T02:58:47;4.40;51.90
13093;DHT22;6612;49.568;11.000;2024-03-08T03:01:14;4.40;51.80
13093;DHT22;6612;49.568;11.000;2024-03-08T03:03:42;4.40;52.10
13093;DHT22;6612;49.568;11.000;2024-03-08T03:06:09;4.30;52.00
13093;DHT22;6612;49.568;11.000;2024-03-08T03:08:37;4.30;52.10
13093;DHT22;6612;49.568;11.000;2024-03-08T03:11:09;4.30;52.00
13093;DHT22;6612;49.568;11.000;2024-03-08T03:13:40;4.30;51.80
13093;DHT22;6612;49.568;11.000;2024-03-08T03:16:08;4.30;52.10
13093;DHT22;6612;49.568;11.000;2024-03-08T03:18:36;4.30;52.00
13093;DHT22;6612;49.568;11.000;2024-03-08T03:21:03;4.30;52.00
13093;DHT22;6612;49.568;11.000;2024-03-08T03:23:33;4.20;52.00
13093;DHT22;6612;49.568;11.000;2024-03-08T03:26:00;4.30;52.10
13093;DHT22;6612;49.568;11.000;2024-03-08T03:28:28;4.20;52.10
13093;DHT22;6612;49.568;11.000;2024-03-08T03:30:56;4.20;52.10
13093;DHT22;6612;49.568;11.000;2024-03-08T03:33:25;4.20;52.20
13093;DHT22;6612;49.568;11.000;2024-03-08T03:35:52;4.20;52.20
13093;DHT22;6612;49.568;11.000;2024-03-08T03:38:20;4.20;52.20
13093;DHT22;6612;49.568;11.000;2024-03-08T03:40:49;4.20;52.20
13093;DHT22;6612;49.568;11.000;2024-03-08T03:43:18;4.20;52.20
13093;DHT22;6612;49.568;11.000;2024-03-08T03:45:45;4.10;52.20
13093;DHT22;6612;49.568;11.000;2024-03-08T03:48:13;4.10;52.20
13093;DHT22;6612;49.568;11.000;2024-03-08T03:50:41;4.10;52.10
13093;DHT22;6612;49.568;11.000;2024-03-08T03:53:08;4.10;52.10
13093;DHT22;6612;49.568;11.000;2024-03-08T03:55:36;4.10;52.20
13093;DHT22;6612;49.568;11.000;2024-03-08T03:58:04;4.10;52.20
13093;DHT22;6612;49.568;11.000;2024-03-08T04:00:31;4.10;52.00
13093;DHT22;6612;49.568;11.000;2024-03-08T04:02:58;4.10;52.30
13093;DHT22;6612;49.568;11.000;2024-03-08T04:05:27;4.10;52.20
13093;DHT22;6612;49.568;11.000;2024-03-08T04:07:55;4.10;52.30
13093;DHT22;6612;49.568;11.000;2024-03-08T04:10:22;4.10;52.40
13093;DHT22;6612;49.568;11.000;2024-03-08T04:12:49;4.00;52.40
13093;DHT22;6612;49.568;11.000;2024-03-08T04:15:17;4.00;52.40
13093;DHT22;6612;49.568;11.000;2024-03-08T04:17:44;4.00;52.30
13093;DHT22;6612;49.568;11.000;2024-03-08T04:20:11;4.00;52.60
13093;DHT22;6612;49.568;11.000;2024-03-08T04:22:41;4.00;52.70
13093;DHT22;6612;49.568;11.000;2024-03-08T04:25:09;4.00;52.60
13093;DHT22;6612;49.568;11.000;2024-03-08T04:27:37;4.00;52.50
13093;DHT22;6612;49.568;11.000;2024-03-08T04:30:05;3.90;52.60
13093;DHT22;6612;49.568;11.000;2024-03-08T04:32:33;3.90;52.70
13093;DHT22;6612;49.568;11.000;2024-03-08T04:35:00;3.90;52.50
13093;DHT22;6612;49.568;11.000;2024-03-08T04:37:29;3.90;52.70
13093;DHT22;6612;49.568;11.000;2024-03-08T04:39:58;3.90;52.60
13093;DHT22;6612;49.568;11.000;2024-03-08T04:42:25;3.90;52.80
13093;DHT22;6612;49.568;11.000;2024-03-08T04:44:53;3.90;52.70
13093;DHT22;6612;49.568;11.000;2024-03-08T04:47:20;3.90;52.80
13093;DHT22;6612;49.568;11.000;2024-03-08T04:49:47;3.90;52.70
13093;DHT22;6612;49.568;11.000;2024-03-08T04:52:16;3.90;52.60
13093;DHT22;6612;49.568;11.000;2024-03-08T04:54:43;3.90;53.30
13093;DHT22;6612;49.568;11.000;2024-03-08T04:57:12;3.90;52.80
13093;DHT22;6612;49.568;11.000;2024-03-08T04:59:40;4.00;53.00
13093;DHT22;6612;49.568;11.000;2024-03-08T05:02:07;3.90;52.90
13093;DHT22;6612;49.568;11.000;2024-03-08T05:04:34;3.90;52.80
13093;DHT22;6612;49.568;11.000;2024-03-08T05:07:01;3.90;53.00
13093;DHT22;6612;49.568;11.000;2024-03-08T05:09:29;3.90;53.10
13093;DHT22;6612;49.568;11.000;2024-03-08T05:11:57;3.90;53.10
13093;DHT22;6612;49.568;11.000;2024-03-08T05:14:26;3.90;53.10
13093;DHT22;6612;49.568;11.000;2024-03-08T05:16:54;3.90;53.20
13093;DHT22;6612;49.568;11.000;2024-03-08T05:19:21;3.90;53.10
13093;DHT22;6612;49.568;11.000;2024-03-08T05:21:49;3.90;53.00
13093;DHT22;6612;49.568;11.000;2024-03-08T05:24:17;3.90;53.10
13093;DHT22;6612;49.568;11.000;2024-03-08T05:26:44;3.90;53.10
13093;DHT22;6612;49.568;11.000;2024-03-08T05:29:13;3.90;53.20
13093;DHT22;6612;49.568;11.000;2024-03-08T05:31:47;3.80;53.10
13093;DHT22;6612;49.568;11.000;2024-03-08T05:34:14;3.90;53.40
13093;DHT22;6612;49.568;11.000;2024-03-08T05:36:42;3.80;53.00
13093;DHT22;6612;49.568;11.000;2024-03-08T05:39:10;3.80;53.00
13093;DHT22;6612;49.568;11.000;2024-03-08T05:41:38;3.80;53.20
13093;DHT22;6612;49.568;11.000;2024-03-08T05:44:05;3.80;53.30
13093;DHT22;6612;49.568;11.000;2024-03-08T05:46:32;3.80;53.30
13093;DHT22;6612;49.568;11.000;2024-03-08T05:49:00;3.60;53.40
13093;DHT22;6612;49.568;11.000;2024-03-08T05:51:31;3.80;53.50
13093;DHT22;6612;49.568;11.000;2024-03-08T05:54:00;3.80;53.50
13093;DHT22;6612;49.568;11.000;2024-03-08T05:56:28;3.80;53.30
13093;DHT22;6612;49.568;11.000;2024-03-08T05:58:56;3.80;53.60
13093;DHT22;6612;49.568;11.000;2024-03-08T06:01:23;3.80;53.50
13093;DHT22;6612;49.568;11.000;2024-03-08T06:03:50;3.90;53.70
13093;DHT22;6612;49.568;11.000;2024-03-08T06:06:21;3.90;53.90
13093;DHT22;6612;49.568;11.000;2024-03-08T06:08:49;3.90;53.90
13093;DHT22;6612;49.568;11.000;2024-03-08T06:11:16;3.90;54.00
13093;DHT22;6612;49.568;11.000;2024-03-08T06:13:44;4.00;54.00
13093;DHT22;6612;49.568;11.000;2024-03-08T06:16:11;4.00;54.10
13093;DHT22;6612;49.568;11.000;2024-03-08T06:18:38;4.00;54.10
13093;DHT22;6612;49.568;11.000;2024-03-08T06:21:07;4.10;54.20
13093;DHT22;6612;49.568;11.000;2024-03-08T06:23:36;4.10;54.30
13093;DHT22;6612;49.568;11.000;2024-03-08T06:26:04;4.10;54.30
13093;DHT22;6612;49.568;11.000;2024-03-08T06:28:31;4.20;54.50
13093;DHT22;6612;49.568;11.000;2024-03-08T06:30:58;4.30;54.90
13093;DHT22;6612;49.568;11.000;2024-03-08T06:33:26;4.40;55.60
13093;DHT22;6612;49.568;11.000;2024-03-08T06:35:53;4.70;57.00
13093;DHT22;6612;49.568;11.000;2024-03-08T06:38:23;4.90;57.30
13093;DHT22;6612;49.568;11.000;2024-03-08T06:40:51;5.20;57.80
13093;DHT22;6612;49.568;11.000;2024-03-08T06:43:18;5.50;57.30
13093;DHT22;6612;49.568;11.000;2024-03-08T06:45:46;5.80;57.00
13093;DHT22;6612;49.568;11.000;2024-03-08T06:48:14;6.10;56.50
13093;DHT22;6612;49.568;11.000;2024-03-08T06:50:43;6.30;56.50
13093;DHT22;6612;49.568;11.000;2024-03-08T06:53:10;6.70;56.70
13093;DHT22;6612;49.568;11.000;2024-03-08T06:55:38;7.00;56.80
13093;DHT22;6612;49.568;11.000;2024-03-08T06:58:06;7.30;56.50
13093;DHT22;6612;49.568;11.000;2024-03-08T07:00:34;7.60;56.10
13093;DHT22;6612;49.568;11.000;2024-03-08T07:03:02;8.00;56.00
13093;DHT22;6612;49.568;11.000;2024-03-08T07:05:29;8.30;55.80
13093;DHT22;6612;49.568;11.000;2024-03-08T07:07:58;8.70;56.00
13093;DHT22;6612;49.568;11.000;2024-03-08T07:10:25;9.00;56.10
13093;DHT22;6612;49.568;11.000;2024-03-08T07:12:52;9.40;55.80
13093;DHT22;6612;49.568;11.000;2024-03-08T07:15:21;9.80;55.20
13093;DHT22;6612;49.568;11.000;2024-03-08T07:17:49;10.20;53.80
13093;DHT22;6612;49.568;11.000;2024-03-08T07:20:18;10.50;53.70
13093;DHT22;6612;49.568;11.000;2024-03-08T07:22:45;10.80;53.80
13093;DHT22;6612;49.568;11.000;2024-03-08T07:25:15;11.20;53.50
13093;DHT22;6612;49.568;11.000;2024-03-08T07:27:47;11.50;51.80
13093;DHT22;6612;49.568;11.000;2024-03-08T07:30:14;11.80;51.50
13093;DHT22;6612;49.568;11.000;2024-03-08T07:33:06;12.10;52.20
13093;DHT22;6612;49.568;11.000;2024-03-08T07:35:33;12.50;51.90
13093;DHT22;6612;49.568;11.000;2024-03-08T07:38:03;12.80;51.70
13093;DHT22;6612;49.568;11.000;2024-03-08T07:40:31;13.10;50.70
13093;DHT22;6612;49.568;11.000;2024-03-08T07:42:58;13.40;49.30
13093;DHT22;6612;49.568;11.000;2024-03-08T07:45:25;13.60;49.70
13093;DHT22;6612;49.568;11.000;2024-03-08T07:47:53;13.90;48.90
13093;DHT22;6612;49.568;11.000;2024-03-08T07:50:23;14.20;49.20
13093;DHT22;6612;49.568;11.000;2024-03-08T07:52:50;14.40;48.50
13093;DHT22;6612;49.568;11.000;2024-03-08T07:55:17;14.70;48.50
13093;DHT22;6612;49.568;11.000;2024-03-08T07:57:44;14.90;48.30
13093;DHT22;6612;49.568;11.000;2024-03-08T08:00:14;15.10;47.60
13093;DHT22;6612;49.568;11.000;2024-03-08T08:02:44;15.30;45.80
13093;DHT22;6612;49.568;11.000;2024-03-08T08:05:12;15.40;46.20
13093;DHT22;6612;49.568;11.000;2024-03-08T08:07:44;15.60;45.80
13093;DHT22;6612;49.568;11.000;2024-03-08T08:10:12;15.70;44.20
13093;DHT22;6612;49.568;11.000;2024-03-08T08:12:44;15.70;44.70
13093;DHT22;6612;49.568;11.000;2024-03-08T08:15:11;15.80;43.70
13093;DHT22;6612;49.568;11.000;2024-03-08T08:17:41;15.80;42.20
13093;DHT22;6612;49.568;11.000;2024-03-08T08:20:09;15.90;43.70
13093;DHT22;6612;49.568;11.000;2024-03-08T08:22:37;15.90;43.20
13093;DHT22;6612;49.568;11.000;2024-03-08T08:25:07;15.90;43.40
13093;DHT22;6612;49.568;11.000;2024-03-08T08:27:34;15.90;42.80
13093;DHT22;6612;49.568;11.000;2024-03-08T08:30:04;16.00;43.50
13093;DHT22;6612;49.568;11.000;2024-03-08T08:32:34;16.10;40.70
13093;DHT22;6612;49.568;11.000;2024-03-08T08:35:01;16.30;42.40
13093;DHT22;6612;49.568;11.000;2024-03-08T08:37:30;16.30;41.60
13093;DHT22;6612;49.568;11.000;2024-03-08T08:39:57;16.30;41.20
13093;DHT22;6612;49.568;11.000;2024-03-08T08:42:30;16.20;40.50
13093;DHT22;6612;49.568;11.000;2024-03-08T08:44:57;16.00;40.10
13093;DHT22;6612;49.568;11.000;2024-03-08T08:47:25;15.80;39.90
13093;DHT22;6612;49.568;11.000;2024-03-08T08:49:52;15.60;38.70
13093;DHT22;6612;49.568;11.000;2024-03-08T08:52:19;15.30;39.20
13093;DHT22;6612;49.568;11.000;2024-03-08T08:54:47;15.10;39.70
13093;DHT22;6612;49.568;11.000;2024-03-08T08:57:15;14.80;39.00
13093;DHT22;6612;49.568;11.000;2024-03-08T08:59:44;14.60;40.10
13093;DHT22;6612;49.568;11.000;2024-03-08T09:02:11;14.40;40.30
13093;DHT22;6612;49.568;11.000;2024-03-08T09:04:38;14.40;40.70
13093;DHT22;6612;49.568;11.000;2024-03-08T09:07:06;14.30;39.60
13093;DHT22;6612;49.568;11.000;2024-03-08T09:09:33;14.30;39.70
13093;DHT22;6612;49.568;11.000;2024-03-08T09:12:00;14.20;39.20
13093;DHT22;6612;49.568;11.000;2024-03-08T09:14:27;14.00;39.10
13093;DHT22;6612;49.568;11.000;2024-03-08T09:16:57;14.00;40.00
13093;DHT22;6612;49.568;11.000;2024-03-08T09:19:24;14.00;41.20
13093;DHT22;6612;49.568;11.000;2024-03-08T09:21:51;14.10;41.60
13093;DHT22;6612;49.568;11.000;2024-03-08T09:24:18;14.30;41.90
13093;DHT22;6612;49.568;11.000;2024-03-08T09:26:46;14.50;41.50
13093;DHT22;6612;49.568;11.000;2024-03-08T09:29:13;14.70;40.00
13093;DHT22;6612;49.568;11.000;2024-03-08T09:31:41;14.80;40.10
13093;DHT22;6612;49.568;11.000;2024-03-08T09:34:09;14.80;39.90
13093;DHT22;6612;49.568;11.000;2024-03-08T09:36:36;14.80;39.40
13093;DHT22;6612;49.568;11.000;2024-03-08T09:39:03;14.70;39.50
13093;DHT22;6612;49.568;11.000;2024-03-08T09:41:33;14.50;39.50
13093;DHT22;6612;49.568;11.000;2024-03-08T09:44:00;14.30;39.00
13093;DHT22;6612;49.568;11.000;2024-03-08T09:46:29;14.10;39.30
13093;DHT22;6612;49.568;11.000;2024-03-08T09:48:56;14.00;39.00
13093;DHT22;6612;49.568;11.000;2024-03-08T09:51:27;13.90;40.10
13093;DHT22;6612;49.568;11.000;2024-03-08T09:53:56;14.00;41.80
13093;DHT22;6612;49.568;11.000;2024-03-08T09:56:25;14.10;41.90
13093;DHT22;6612;49.568;11.000;2024-03-08T09:58:53;14.30;41.70
13093;DHT22;6612;49.568;11.000;2024-03-08T10:01:40;14.50;41.70
13093;DHT22;6612;49.568;11.000;2024-03-08T10:04:07;14.70;41.70
13093;DHT22;6612;49.568;11.000;2024-03-08T10:06:37;14.90;41.60
13093;DHT22;6612;49.568;11.000;2024-03-08T10:09:04;15.00;41.00
13093;DHT22;6612;49.568;11.000;2024-03-08T10:11:33;15.20;41.40
13093;DHT22;6612;49.568;11.000;2024-03-08T10:14:00;15.30;40.90
13093;DHT22;6612;49.568;11.000;2024-03-08T10:16:28;15.40;40.60
13093;DHT22;6612;49.568;11.000;2024-03-08T10:18:56;15.40;40.40
13093;DHT22;6612;49.568;11.000;2024-03-08T10:21:23;15.50;39.30
13093;DHT22;6612;49.568;11.000;2024-03-08T10:23:52;15.50;39.10
13093;DHT22;6612;49.568;11.000;2024-03-08T10:26:19;15.50;38.20
13093;DHT22;6612;49.568;11.000;2024-03-08T10:28:48;15.60;38.40
13093;DHT22;6612;49.568;11.000;2024-03-08T10:31:15;15.70;39.20
13093;DHT22;6612;49.568;11.000;2024-03-08T10:33:43;15.70;38.70
13093;DHT22;6612;49.568;11.000;2024-03-08T10:36:11;15.80;38.00
13093;DHT22;6612;49.568;11.000;2024-03-08T10:38:40;15.80;38.10
13093;DHT22;6612;49.568;11.000;2024-03-08T10:41:11;15.80;37.40
13093;DHT22;6612;49.568;11.000;2024-03-08T10:43:52;15.80;36.50
13093;DHT22;6612;49.568;11.000;2024-03-08T10:46:27;15.70;36.00
13093;DHT22;6612;49.568;11.000;2024-03-08T10:49:00;15.70;36.60
13093;DHT22;6612;49.568;11.000;2024-03-08T10:51:30;15.70;37.80
13093;DHT22;6612;49.568;11.000;2024-03-08T10:53:59;15.70;37.80
13093;DHT22;6612;49.568;11.000;2024-03-08T10:56:30;15.80;37.40
13093;DHT22;6612;49.568;11.000;2024-03-08T10:58:57;15.70;37.20
13093;DHT22;6612;49.568;11.000;2024-03-08T11:01:24;15.70;37.40
13093;DHT22;6612;49.568;11.000;2024-03-08T11:03:52;15.70;37.00
13093;DHT22;6612;49.568;11.000;2024-03-08T11:06:30;15.70;36.50
13093;DHT22;6612;49.568;11.000;2024-03-08T11:09:10;15.60;36.30
13093;DHT22;6612;49.568;11.000;2024-03-08T11:11:44;15.60;36.70
13093;DHT22;6612;49.568;11.000;2024-03-08T11:14:43;15.50;36.90
13093;DHT22;6612;49.568;11.000;2024-03-08T11:17:10;15.50;36.00
13093;DHT22;6612;49.568;11.000;2024-03-08T11:19:37;15.30;35.70
13093;DHT22;6612;49.568;11.000;2024-03-08T11:22:06;15.20;37.10
13093;DHT22;6612;49.568;11.000;2024-03-08T11:24:39;15.00;36.00
13093;DHT22;6612;49.568;11.000;2024-03-08T11:27:07;14.80;36.30
13093;DHT22;6612;49.568;11.000;2024-03-08T11:29:37;14.70;36.50
13093;DHT22;6612;49.568;11.000;2024-03-08T11:32:09;14.50;36.40
13093;DHT22;6612;49.568;11.000;2024-03-08T11:34:37;14.40;36.50
13093;DHT22;6612;49.568;11.000;2024-03-08T11:37:05;14.20;36.60
13093;DHT22;6612;49.568;11.000;2024-03-08T11:39:35;14.10;37.00
13093;DHT22;6612;49.568;11.000;2024-03-08T11:42:04;14.00;37.10
13093;DHT22;6612;49.568;11.000;2024-03-08T11:44:33;13.90;36.60
13093;DHT22;6612;49.568;11.000;2024-03-08T11:47:01;13.90;37.00
13093;DHT22;6612;49.568;11.000;2024-03-08T11:49:32;13.80;37.30
13093;DHT22;6612;49.568;11.000;2024-03-08T11:52:00;13.80;37.10
13093;DHT22;6612;49.568;11.000;2024-03-08T11:54:27;13.70;36.50
13093;DHT22;6612;49.568;11.000;2024-03-08T11:56:56;13.70;36.80
13093;DHT22;6612;49.568;11.000;2024-03-08T11:59:27;13.70;37.40
13093;DHT22;6612;49.568;11.000;2024-03-08T12:02:03;13.70;37.90
13093;DHT22;6612;49.568;11.000;2024-03-08T12:04:31;13.70;37.30
13093;DHT22;6612;49.568;11.000;2024-03-08T12:06:59;13.70;38.40
13093;DHT22;6612;49.568;11.000;2024-03-08T12:09:28;13.70;37.90
13093;DHT22;6612;49.568;11.000;2024-03-08T12:11:55;13.70;37.70
13093;DHT22;6612;49.568;11.000;2024-03-08T12:14:22;13.70;37.80
13093;DHT22;6612;49.568;11.000;2024-03-08T12:16:51;13.70;37.80
13093;DHT22;6612;49.568;11.000;2024-03-08T12:19:20;13.70;37.50
13093;DHT22;6612;49.568;11.000;2024-03-08T12:21:47;13.70;37.80
13093;DHT22;6612;49.568;11.000;2024-03-08T12:24:16;13.70;37.90
13093;DHT22;6612;49.568;11.000;2024-03-08T12:26:46;13.70;37.90
13093;DHT22;6612;49.568;11.000;2024-03-08T12:29:18;13.70;37.50
13093;DHT22;6612;49.568;11.000;2024-03-08T12:31:50;13.70;37.50
13093;DHT22;6612;49.568;11.000;2024-03-08T12:34:19;13.70;37.50
13093;DHT22;6612;49.568;11.000;2024-03-08T12:36:48;13.70;37.30
13093;DHT22;6612;49.568;11.000;2024-03-08T12:39:16;13.60;37.50
13093;DHT22;6612;49.568;11.000;2024-03-08T12:41:48;13.60;38.20
13093;DHT22;6612;49.568;11.000;2024-03-08T12:44:15;13.60;38.00
13093;DHT22;6612;49.568;11.000;2024-03-08T12:46:44;13.70;38.30
13093;DHT22;6612;49.568;11.000;2024-03-08T12:49:11;13.70;37.90
13093;DHT22;6612;49.568;11.000;2024-03-08T12:51:40;13.70;37.70
13093;DHT22;6612;49.568;11.000;2024-03-08T12:54:07;13.70;37.80
13093;DHT22;6612;49.568;11.000;2024-03-08T12:56:35;13.70;37.90
13093;DHT22;6612;49.568;11.000;2024-03-08T12:59:03;13.70;37.50
13093;DHT22;6612;49.568;11.000;2024-03-08T13:01:31;13.70;37.20
13093;DHT22;6612;49.568;11.000;2024-03-08T13:03:59;13.70;37.40
13093;DHT22;6612;49.568;11.000;2024-03-08T13:06:27;13.70;37.50
13093;DHT22;6612;49.568;11.000;2024-03-08T13:08:58;13.70;37.60
13093;DHT22;6612;49.568;11.000;2024-03-08T13:11:30;13.70;37.60
13093;DHT22;6612;49.568;11.000;2024-03-08T13:14:02;13.70;37.70
13093;DHT22;6612;49.568;11.000;2024-03-08T13:16:31;13.70;37.50
13093;DHT22;6612;49.568;11.000;2024-03-08T13:19:00;13.80;37.30
13093;DHT22;6612;49.568;11.000;2024-03-08T13:21:27;13.80;36.70
13093;DHT22;6612;49.568;11.000;2024-03-08T13:23:55;13.80;37.20
13093;DHT22;6612;49.568;11.000;2024-03-08T13:26:26;13.80;37.40
13093;DHT22;6612;49.568;11.000;2024-03-08T13:28:58;13.80;37.20
13093;DHT22;6612;49.568;11.000;2024-03-08T13:31:25;13.80;37.20
13093;DHT22;6612;49.568;11.000;2024-03-08T13:33:52;13.80;37.20
13093;DHT22;6612;49.568;11.000;2024-03-08T13:36:24;13.90;37.30
13093;DHT22;6612;49.568;11.000;2024-03-08T13:38:55;13.90;37.50
13093;DHT22;6612;49.568;11.000;2024-03-08T13:41:26;13.90;37.40
13093;DHT22;6612;49.568;11.000;2024-03-08T13:43:53;13.90;37.20
13093;DHT22;6612;49.568;11.000;2024-03-08T13:46:21;14.00;37.40
13093;DHT22;6612;49.568;11.000;2024-03-08T13:48:50;14.00;36.80
13093;DHT22;6612;49.568;11.000;2024-03-08T13:51:19;14.00;37.20
13093;DHT22;6612;49.568;11.000;2024-03-08T13:53:48;14.00;37.20
13093;DHT22;6612;49.568;11.000;2024-03-08T13:56:15;14.00;37.30
13093;DHT22;6612;49.568;11.000;2024-03-08T13:58:44;14.00;36.90
13093;DHT22;6612;49.568;11.000;2024-03-08T14:01:11;14.00;37.10
13093;DHT22;6612;49.568;11.000;2024-03-08T14:03:38;14.00;37.10
13093;DHT22;6612;49.568;11.000;2024-03-08T14:06:07;14.10;36.80
13093;DHT22;6612;49.568;11.000;2024-03-08T14:08:35;14.10;37.00
13093;DHT22;6612;49.568;11.000;2024-03-08T14:11:04;14.10;36.20
13093;DHT22;6612;49.568;11.000;2024-03-08T14:13:41;14.10;36.90
13093;DHT22;6612;49.568;11.000;2024-03-08T14:16:12;14.10;36.70
13093;DHT22;6612;49.568;11.000;2024-03-08T14:18:39;14.10;36.40
13093;DHT22;6612;49.568;11.000;2024-03-08T14:21:06;14.10;36.60
13093;DHT22;6612;49.568;11.000;2024-03-08T14:23:34;14.10;36.70
13093;DHT22;6612;49.568;11.000;2024-03-08T14:26:02;14.10;36.50
13093;DHT22;6612;49.568;11.000;2024-03-08T14:28:29;14.10;36.60
13093;DHT22;6612;49.568;11.000;2024-03-08T14:30:58;14.20;37.10
13093;DHT22;6612;49.568;11.000;2024-03-08T14:33:29;14.20;36.50
13093;DHT22;6612;49.568;11.000;2024-03-08T14:35:57;14.20;36.30
13093;DHT22;6612;49.568;11.000;2024-03-08T14:38:24;14.20;36.30
13093;DHT22;6612;49.568;11.000;2024-03-08T14:40:53;14.20;35.90
13093;DHT22;6612;49.568;11.000;2024-03-08T14:43:21;14.20;36.80
13093;DHT22;6612;49.568;11.000;2024-03-08T14:45:48;14.20;36.50
13093;DHT22;6612;49.568;11.000;2024-03-08T14:48:16;14.20;36.20
13093;DHT22;6612;49.568;11.000;2024-03-08T14:50:45;14.20;36.60
13093;DHT22;6612;49.568;11.000;2024-03-08T14:53:13;14.20;36.70
13093;DHT22;6612;49.568;11.000;2024-03-08T14:55:41;14.20;36.70
13093;DHT22;6612;49.568;11.000;2024-03-08T14:58:09;14.20;36.50
13093;DHT22;6612;49.568;11.000;2024-03-08T15:00:37;14.20;36.20
13093;DHT22;6612;49.568;11.000;2024-03-08T15:03:05;14.20;36.60
13093;DHT22;6612;49.568;11.000;2024-03-08T15:05:34;14.20;36.70
13093;DHT22;6612;49.568;11.000;2024-03-08T15:08:05;14.20;36.30
13093;DHT22;6612;49.568;11.000;2024-03-08T15:10:36;14.20;36.60
13093;DHT22;6612;49.568;11.000;2024-03-08T15:13:05;14.20;36.80
13093;DHT22;6612;49.568;11.000;2024-03-08T15:15:46;14.20;36.60
13093;DHT22;6612;49.568;11.000;2024-03-08T15:18:22;14.10;36.60
13093;DHT22;6612;49.568;11.000;2024-03-08T15:20:52;14.10;36.40
13093;DHT22;6612;49.568;11.000;2024-03-08T15:23:20;14.10;36.50
13093;DHT22;6612;49.568;11.000;2024-03-08T15:25:48;14.10;36.70
13093;DHT22;6612;49.568;11.000;2024-03-08T15:28:15;14.10;36.80
13093;DHT22;6612;49.568;11.000;2024-03-08T15:30:46;14.10;36.70
13093;DHT22;6612;49.568;11.000;2024-03-08T15:33:17;14.00;36.90
13093;DHT22;6612;49.568;11.000;2024-03-08T15:35:50;14.00;36.90
13093;DHT22;6612;49.568;11.000;2024-03-08T15:38:24;14.00;37.10
13093;DHT22;6612;49.568;11.000;2024-03-08T15:40:53;14.00;37.30
13093;DHT22;6612;49.568;11.000;2024-03-08T15:43:20;14.00;37.30
13093;DHT22;6612;49.568;11.000;2024-03-08T15:45:47;14.00;37.40